sensor_id;sensor_type;location;lat;lon;timestamp;noise_LAeq;noise_LA_min;noise_LA_max;noise_LA01;noise_LA95
67322;Laerm;57666;51.436;5.978;2023-10-31T00:15:02;36.43;34.18;50.30;;
67322;Laerm;57666;51.436;5.978;2023-10-31T00:16:08;40.05;34.02;55.91;;
67322;Laerm;57666;51.436;5.978;2023-10-31T00:16:22;36.24;34.07;46.57;;
67322;Laerm;57666;51.436;5.978;2023-10-31T00:16:39;36.58;34.40;46.08;;
67322;Laerm;57666;51.436;5.978;2023-10-31T00:16:56;35.96;34.16;42.02;;
67322;Laerm;57666;51.436;5.978;2023-10-31T00:17:11;35.58;34.29;37.17;;
67322;Laerm;57666;51.436;5.978;2023-10-31T00:17:25;35.72;34.30;40.36;;
67322;Laerm;57666;51.436;5.978;2023-10-31T00:17:35;35.57;34.07;40.79;;
67322;Laerm;57666;51.436;5.978;2023-10-31T00:17:49;35.68;34.64;41.29;;
67322;Laerm;57666;51.436;5.978;2023-10-31T00:18:15;40.36;34.44;53.45;;
67322;Laerm;57666;51.436;5.978;2023-10-31T00:18:25;35.65;34.57;39.23;;
67322;Laerm;57666;51.436;5.978;2023-10-31T00:18:39;37.95;34.60;49.00;;
67322;Laerm;57666;51.436;5.978;2023-10-31T00:18:52;39.33;35.00;50.55;;
67322;Laerm;57666;51.436;5.978;2023-10-31T00:19:03;37.56;34.64;49.06;;
67322;Laerm;57666;51.436;5.978;2023-10-31T00:19:15;36.35;34.67;40.87;;
67322;Laerm;57666;51.436;5.978;2023-10-31T00:19:26;36.09;34.45;38.67;;
67322;Laerm;57666;51.436;5.978;2023-10-31T00:19:40;37.48;34.82;48.18;;
67322;Laerm;57666;51.436;5.978;2023-10-31T00:19:55;36.25;34.42;43.61;;
67322;Laerm;57666;51.436;5.978;2023-10-31T00:20:06;36.16;34.67;38.22;;
67322;Laerm;57666;51.436;5.978;2023-10-31T00:20:17;39.03;34.93;56.68;;
67322;Laerm;57666;51.436;5.978;2023-10-31T00:20:31;43.27;34.62;57.63;;
67322;Laerm;57666;51.436;5.978;2023-10-31T00:20:47;37.32;34.78;45.47;;
67322;Laerm;57666;51.436;5.978;2023-10-31T00:20:57;36.48;34.86;41.59;;
67322;Laerm;57666;51.436;5.978;2023-10-31T00:21:08;36.36;34.92;42.17;;
67322;Laerm;57666;51.436;5.978;2023-10-31T00:21:22;54.11;35.25;69.54;;
67322;Laerm;57666;51.436;5.978;2023-10-31T00:21:32;50.55;35.95;63.25;;
67322;Laerm;57666;51.436;5.978;2023-10-31T00:21:46;40.80;38.33;49.17;;
67322;Laerm;57666;51.436;5.978;2023-10-31T00:21:57;39.86;36.96;43.77;;
67322;Laerm;57666;51.436;5.978;2023-10-31T00:22:07;37.20;34.59;45.44;;
67322;Laerm;57666;51.436;5.978;2023-10-31T00:22:18;37.41;34.74;51.79;;
67322;Laerm;57666;51.436;5.978;2023-10-31T00:22:38;41.82;34.59;57.29;;
67322;Laerm;57666;51.436;5.978;2023-10-31T00:22:49;36.00;34.61;37.90;;
67322;Laerm;57666;51.436;5.978;2023-10-31T00:22:59;35.95;34.50;37.78;;
67322;Laerm;57666;51.436;5.978;2023-10-31T00:23:10;36.10;34.73;38.67;;
67322;Laerm;57666;51.436;5.978;2023-10-31T00:23:21;37.88;34.85;49.54;;
67322;Laerm;57666;51.436;5.978;2023-10-31T00:23:32;36.25;34.80;39.95;;
67322;Laerm;57666;51.436;5.978;2023-10-31T00:23:43;44.07;35.04;59.71;;
67322;Laerm;57666;51.436;5.978;2023-10-31T00:23:54;41.45;34.71;54.90;;
67322;Laerm;57666;51.436;5.978;2023-10-31T00:24:04;35.92;34.67;37.77;;
67322;Laerm;57666;51.436;5.978;2023-10-31T00:24:15;48.75;34.66;65.47;;
67322;Laerm;57666;51.436;5.978;2023-10-31T00:24:25;42.46;34.69;55.38;;
67322;Laerm;57666;51.436;5.978;2023-10-31T00:24:39;52.12;34.69;68.88;;
67322;Laerm;57666;51.436;5.978;2023-10-31T00:24:49;41.83;34.49;54.16;;
67322;Laerm;57666;51.436;5.978;2023-10-31T00:24:59;43.08;34.89;61.74;;
67322;Laerm;57666;51.436;5.978;2023-10-31T00:25:10;36.41;34.58;40.28;;
67322;Laerm;57666;51.436;5.978;2023-10-31T00:25:20;36.19;34.90;38.49;;
67322;Laerm;57666;51.436;5.978;2023-10-31T00:25:31;35.98;34.60;37.44;;
67322;Laerm;57666;51.436;5.978;2023-10-31T00:25:41;68.15;34.80;92.97;;
67322;Laerm;57666;51.436;5.978;2023-10-31T00:25:52;46.11;36.60;58.31;;
67322;Laerm;57666;51.436;5.978;2023-10-31T00:26:02;47.14;36.96;57.28;;
67322;Laerm;57666;51.436;5.978;2023-10-31T00:26:12;44.68;36.35;57.39;;
67322;Laerm;57666;51.436;5.978;2023-10-31T00:26:23;45.34;36.79;56.74;;
67322;Laerm;57666;51.436;5.978;2023-10-31T00:26:33;42.14;36.70;52.25;;
67322;Laerm;57666;51.436;5.978;2023-10-31T00:26:44;45.90;36.85;54.51;;
67322;Laerm;57666;51.436;5.978;2023-10-31T00:26:54;47.14;37.72;58.43;;
67322;Laerm;57666;51.436;5.978;2023-10-31T00:27:04;47.27;36.72;58.84;;
67322;Laerm;57666;51.436;5.978;2023-10-31T00:27:15;48.44;37.57;57.29;;
67322;Laerm;57666;51.436;5.978;2023-10-31T00:27:25;48.95;38.12;58.61;;
67322;Laerm;57666;51.436;5.978;2023-10-31T00:27:39;46.84;37.75;58.37;;
67322;Laerm;57666;51.436;5.978;2023-10-31T00:27:49;45.88;37.78;59.29;;
67322;Laerm;57666;51.436;5.978;2023-10-31T00:28:01;44.98;37.65;56.21;;
67322;Laerm;57666;51.436;5.978;2023-10-31T00:28:11;48.78;38.09;64.36;;
67322;Laerm;57666;51.436;5.978;2023-10-31T00:28:22;58.85;38.88;74.80;;
67322;Laerm;57666;51.436;5.978;2023-10-31T00:28:35;51.07;37.66;61.39;;
67322;Laerm;57666;51.436;5.978;2023-10-31T00:28:45;52.54;37.84;64.54;;
67322;Laerm;57666;51.436;5.978;2023-10-31T00:28:56;46.62;37.51;59.15;;
67322;Laerm;57666;51.436;5.978;2023-10-31T00:29:06;45.87;37.58;54.92;;
67322;Laerm;57666;51.436;5.978;2023-10-31T00:29:17;43.59;37.22;52.81;;
67322;Laerm;57666;51.436;5.978;2023-10-31T00:29:27;46.13;36.66;55.58;;
67322;Laerm;57666;51.436;5.978;2023-10-31T00:29:37;45.79;37.69;55.75;;
67322;Laerm;57666;51.436;5.978;2023-10-31T00:29:48;48.80;38.85;54.74;;
67322;Laerm;57666;51.436;5.978;2023-10-31T00:29:58;50.67;39.66;57.45;;
67322;Laerm;57666;51.436;5.978;2023-10-31T00:30:09;49.95;40.62;56.79;;
67322;Laerm;57666;51.436;5.978;2023-10-31T00:30:19;50.07;38.30;57.60;;
67322;Laerm;57666;51.436;5.978;2023-10-31T00:30:29;44.21;38.32;50.22;;
67322;Laerm;57666;51.436;5.978;2023-10-31T00:30:40;47.41;38.13;58.56;;
67322;Laerm;57666;51.436;5.978;2023-10-31T00:30:50;49.89;39.90;58.32;;
67322;Laerm;57666;51.436;5.978;2023-10-31T00:31:01;50.19;37.48;58.98;;
67322;Laerm;57666;51.436;5.978;2023-10-31T00:31:11;49.45;38.70;61.29;;
67322;Laerm;57666;51.436;5.978;2023-10-31T00:31:24;48.04;37.97;58.75;;
67322;Laerm;57666;51.436;5.978;2023-10-31T00:31:35;46.15;37.47;56.24;;
67322;Laerm;57666;51.436;5.978;2023-10-31T00:31:45;47.36;39.62;59.64;;
67322;Laerm;57666;51.436;5.978;2023-10-31T00:31:55;47.30;37.92;59.25;;
67322;Laerm;57666;51.436;5.978;2023-10-31T00:32:09;53.08;38.60;62.74;;
67322;Laerm;57666;51.436;5.978;2023-10-31T00:32:19;51.15;38.80;62.49;;
67322;Laerm;57666;51.436;5.978;2023-10-31T00:32:30;47.89;37.70;59.50;;
67322;Laerm;57666;51.436;5.978;2023-10-31T00:32:40;47.37;36.56;56.94;;
67322;Laerm;57666;51.436;5.978;2023-10-31T00:32:53;57.65;37.35;70.47;;
67322;Laerm;57666;51.436;5.978;2023-10-31T00:33:03;51.42;38.17;64.69;;
67322;Laerm;57666;51.436;5.978;2023-10-31T00:33:14;49.95;39.24;64.08;;
67322;Laerm;57666;51.436;5.978;2023-10-31T00:33:24;49.08;36.97;61.55;;
67322;Laerm;57666;51.436;5.978;2023-10-31T00:33:34;47.05;37.92;57.64;;
67322;Laerm;57666;51.436;5.978;2023-10-31T00:33:45;53.40;38.03;68.58;;
67322;Laerm;57666;51.436;5.978;2023-10-31T00:33:55;50.02;38.31;60.41;;
67322;Laerm;57666;51.436;5.978;2023-10-31T00:34:06;47.20;36.59;58.57;;
67322;Laerm;57666;51.436;5.978;2023-10-31T00:34:20;45.96;35.64;60.07;;
67322;Laerm;57666;51.436;5.978;2023-10-31T00:34:30;44.83;37.61;52.16;;
67322;Laerm;57666;51.436;5.978;2023-10-31T00:34:41;46.51;36.77;57.40;;
67322;Laerm;57666;51.436;5.978;2023-10-31T00:34:51;44.54;36.26;56.33;;
67322;Laerm;57666;51.436;5.978;2023-10-31T00:35:02;53.53;38.44;66.40;;
67322;Laerm;57666;51.436;5.978;2023-10-31T00:35:12;45.11;38.11;58.38;;
67322;Laerm;57666;51.436;5.978;2023-10-31T00:35:22;48.37;35.20;64.20;;
67322;Laerm;57666;51.436;5.978;2023-10-31T00:35:33;35.97;34.62;43.08;;
67322;Laerm;57666;51.436;5.978;2023-10-31T00:35:43;44.63;34.61;61.06;;
67322;Laerm;57666;51.436;5.978;2023-10-31T00:35:54;39.40;34.16;53.11;;
67322;Laerm;57666;51.436;5.978;2023-10-31T00:36:04;42.16;34.68;57.32;;
67322;Laerm;57666;51.436;5.978;2023-10-31T00:36:14;35.70;34.51;39.69;;
67322;Laerm;57666;51.436;5.978;2023-10-31T00:36:25;38.16;34.64;51.23;;
67322;Laerm;57666;51.436;5.978;2023-10-31T00:36:35;40.44;34.87;51.25;;
67322;Laerm;57666;51.436;5.978;2023-10-31T00:36:49;38.02;34.54;52.96;;
67322;Laerm;57666;51.436;5.978;2023-10-31T00:37:00;50.12;35.44;65.86;;
67322;Laerm;57666;51.436;5.978;2023-10-31T00:37:10;42.39;38.78;48.16;;
67322;Laerm;57666;51.436;5.978;2023-10-31T00:37:21;42.25;38.02;51.86;;
67322;Laerm;57666;51.436;5.978;2023-10-31T00:37:31;42.29;34.68;56.27;;
67322;Laerm;57666;51.436;5.978;2023-10-31T00:37:41;41.39;34.48;53.24;;
67322;Laerm;57666;51.436;5.978;2023-10-31T00:37:52;36.16;34.36;44.62;;
67322;Laerm;57666;51.436;5.978;2023-10-31T00:38:02;36.00;34.55;47.05;;
67322;Laerm;57666;51.436;5.978;2023-10-31T00:38:13;38.50;34.49;52.59;;
67322;Laerm;57666;51.436;5.978;2023-10-31T00:38:23;35.86;34.57;41.66;;
67322;Laerm;57666;51.436;5.978;2023-10-31T00:38:33;51.38;34.47;63.97;;
67322;Laerm;57666;51.436;5.978;2023-10-31T00:38:44;42.41;34.46;55.40;;
67322;Laerm;57666;51.436;5.978;2023-10-31T00:38:54;35.88;34.64;39.64;;
67322;Laerm;57666;51.436;5.978;2023-10-31T00:39:05;35.78;34.36;38.34;;
67322;Laerm;57666;51.436;5.978;2023-10-31T00:39:15;39.16;34.56;54.98;;
67322;Laerm;57666;51.436;5.978;2023-10-31T00:39:25;47.57;34.96;58.99;;
67322;Laerm;57666;51.436;5.978;2023-10-31T00:39:36;39.94;34.42;53.48;;
67322;Laerm;57666;51.436;5.978;2023-10-31T00:39:49;40.72;34.67;53.22;;
67322;Laerm;57666;51.436;5.978;2023-10-31T00:40:00;43.99;34.46;58.10;;
67322;Laerm;57666;51.436;5.978;2023-10-31T00:40:10;35.81;34.61;37.00;;
67322;Laerm;57666;51.436;5.978;2023-10-31T00:40:24;37.47;34.47;57.84;;
67322;Laerm;57666;51.436;5.978;2023-10-31T00:40:34;38.20;34.41;51.66;;
67322;Laerm;57666;51.436;5.978;2023-10-31T00:40:44;36.79;34.75;46.84;;
67322;Laerm;57666;51.436;5.978;2023-10-31T00:40:55;36.96;34.56;55.56;;
67322;Laerm;57666;51.436;5.978;2023-10-31T00:41:05;36.74;34.59;41.47;;
67322;Laerm;57666;51.436;5.978;2023-10-31T00:41:16;38.76;35.07;48.79;;
67322;Laerm;57666;51.436;5.978;2023-10-31T00:41:26;37.33;35.23;41.38;;
67322;Laerm;57666;51.436;5.978;2023-10-31T00:41:37;37.87;35.44;41.88;;
67322;Laerm;57666;51.436;5.978;2023-10-31T00:41:47;37.93;35.83;41.46;;
67322;Laerm;57666;51.436;5.978;2023-10-31T00:41:58;37.48;35.16;43.89;;
67322;Laerm;57666;51.436;5.978;2023-10-31T00:42:08;37.78;35.45;44.40;;
67322;Laerm;57666;51.436;5.978;2023-10-31T00:42:18;37.23;34.80;40.28;;
67322;Laerm;57666;51.436;5.978;2023-10-31T00:42:29;36.78;34.69;45.32;;
67322;Laerm;57666;51.436;5.978;2023-10-31T00:42:39;46.21;35.11;59.50;;
67322;Laerm;57666;51.436;5.978;2023-10-31T00:42:52;48.69;34.76;62.89;;
67322;Laerm;57666;51.436;5.978;2023-10-31T00:43:04;48.03;34.68;61.40;;
67322;Laerm;57666;51.436;5.978;2023-10-31T00:43:14;40.82;35.07;53.62;;
67322;Laerm;57666;51.436;5.978;2023-10-31T00:43:24;41.30;34.72;54.81;;
67322;Laerm;57666;51.436;5.978;2023-10-31T00:43:35;36.06;34.52;40.73;;
67322;Laerm;57666;51.436;5.978;2023-10-31T00:43:45;35.83;34.67;40.26;;
67322;Laerm;57666;51.436;5.978;2023-10-31T00:43:56;36.83;34.77;48.45;;
67322;Laerm;57666;51.436;5.978;2023-10-31T00:44:06;39.08;34.81;50.58;;
67322;Laerm;57666;51.436;5.978;2023-10-31T00:44:16;36.15;34.80;38.10;;
67322;Laerm;57666;51.436;5.978;2023-10-31T00:44:27;38.33;34.96;50.13;;
67322;Laerm;57666;51.436;5.978;2023-10-31T00:44:37;40.67;35.41;51.04;;
67322;Laerm;57666;51.436;5.978;2023-10-31T00:44:48;37.51;35.36;50.35;;
67322;Laerm;57666;51.436;5.978;2023-10-31T00:44:59;52.79;35.48;65.01;;
67322;Laerm;57666;51.436;5.978;2023-10-31T00:45:10;40.83;35.28;56.37;;
67322;Laerm;57666;51.436;5.978;2023-10-31T00:45:21;45.05;35.39;56.41;;
67322;Laerm;57666;51.436;5.978;2023-10-31T00:45:31;40.31;35.18;49.90;;
67322;Laerm;57666;51.436;5.978;2023-10-31T00:45:41;37.93;35.32;51.65;;
67322;Laerm;57666;51.436;5.978;2023-10-31T00:45:52;38.39;35.66;51.71;;
67322;Laerm;57666;51.436;5.978;2023-10-31T00:46:02;36.80;34.94;40.42;;
67322;Laerm;57666;51.436;5.978;2023-10-31T00:46:13;36.41;35.11;37.94;;
67322;Laerm;57666;51.436;5.978;2023-10-31T00:46:24;36.54;35.15;42.12;;
67322;Laerm;57666;51.436;5.978;2023-10-31T00:46:34;36.54;35.19;40.62;;
67322;Laerm;57666;51.436;5.978;2023-10-31T00:46:44;36.18;34.73;37.68;;
67322;Laerm;57666;51.436;5.978;2023-10-31T00:46:55;38.35;34.89;51.96;;
67322;Laerm;57666;51.436;5.978;2023-10-31T00:47:05;36.96;34.91;44.64;;
67322;Laerm;57666;51.436;5.978;2023-10-31T00:47:15;37.47;34.93;50.42;;
67322;Laerm;57666;51.436;5.978;2023-10-31T00:47:26;36.73;35.41;49.12;;
67322;Laerm;57666;51.436;5.978;2023-10-31T00:47:36;36.22;35.14;37.45;;
67322;Laerm;57666;51.436;5.978;2023-10-31T00:47:47;38.75;35.34;52.03;;
67322;Laerm;57666;51.436;5.978;2023-10-31T00:47:57;42.81;35.57;59.82;;
67322;Laerm;57666;51.436;5.978;2023-10-31T00:48:07;50.52;35.50;63.22;;
67322;Laerm;57666;51.436;5.978;2023-10-31T00:48:18;43.82;35.32;58.03;;
67322;Laerm;57666;51.436;5.978;2023-10-31T00:48:29;36.94;35.23;43.02;;
67322;Laerm;57666;51.436;5.978;2023-10-31T00:48:39;40.77;35.30;51.77;;
67322;Laerm;57666;51.436;5.978;2023-10-31T00:48:50;42.78;35.16;53.42;;
67322;Laerm;57666;51.436;5.978;2023-10-31T00:49:00;36.74;35.32;45.69;;
67322;Laerm;57666;51.436;5.978;2023-10-31T00:49:10;49.99;35.32;62.83;;
67322;Laerm;57666;51.436;5.978;2023-10-31T00:49:21;36.82;35.49;43.48;;
67322;Laerm;57666;51.436;5.978;2023-10-31T00:49:31;38.14;35.58;49.84;;
67322;Laerm;57666;51.436;5.978;2023-10-31T00:49:41;36.75;35.64;39.03;;
67322;Laerm;57666;51.436;5.978;2023-10-31T00:49:52;36.74;34.85;38.37;;
67322;Laerm;57666;51.436;5.978;2023-10-31T00:50:04;36.62;35.53;38.69;;
67322;Laerm;57666;51.436;5.978;2023-10-31T00:50:15;38.87;35.38;47.78;;
67322;Laerm;57666;51.436;5.978;2023-10-31T00:50:25;37.41;35.56;48.48;;
67322;Laerm;57666;51.436;5.978;2023-10-31T00:50:36;36.72;35.38;37.90;;
67322;Laerm;57666;51.436;5.978;2023-10-31T00:50:46;36.79;35.57;38.32;;
67322;Laerm;57666;51.436;5.978;2023-10-31T00:50:57;36.89;35.76;38.37;;
67322;Laerm;57666;51.436;5.978;2023-10-31T00:51:07;36.88;35.52;37.89;;
67322;Laerm;57666;51.436;5.978;2023-10-31T00:51:17;39.62;35.14;53.76;;
67322;Laerm;57666;51.436;5.978;2023-10-31T00:51:28;41.91;35.80;56.49;;
67322;Laerm;57666;51.436;5.978;2023-10-31T00:51:38;50.66;35.88;68.88;;
67322;Laerm;57666;51.436;5.978;2023-10-31T00:51:49;37.25;35.45;43.67;;
67322;Laerm;57666;51.436;5.978;2023-10-31T00:51:59;38.30;35.62;52.06;;
67322;Laerm;57666;51.436;5.978;2023-10-31T00:52:09;37.31;35.81;40.99;;
67322;Laerm;57666;51.436;5.978;2023-10-31T00:52:20;37.25;35.76;38.90;;
67322;Laerm;57666;51.436;5.978;2023-10-31T00:52:30;38.88;36.21;53.53;;
67322;Laerm;57666;51.436;5.978;2023-10-31T00:52:40;37.17;36.02;38.60;;
67322;Laerm;57666;51.436;5.978;2023-10-31T00:52:51;37.16;35.91;38.19;;
67322;Laerm;57666;51.436;5.978;2023-10-31T00:53:01;37.09;35.77;38.70;;
67322;Laerm;57666;51.436;5.978;2023-10-31T00:53:11;39.84;36.06;49.08;;
67322;Laerm;57666;51.436;5.978;2023-10-31T00:53:23;37.30;36.10;38.52;;
67322;Laerm;57666;51.436;5.978;2023-10-31T00:53:34;37.58;35.71;46.73;;
67322;Laerm;57666;51.436;5.978;2023-10-31T00:53:45;37.24;35.90;39.18;;
67322;Laerm;57666;51.436;5.978;2023-10-31T00:53:55;37.27;36.14;39.79;;
67322;Laerm;57666;51.436;5.978;2023-10-31T00:54:06;39.75;36.08;50.93;;
67322;Laerm;57666;51.436;5.978;2023-10-31T00:54:16;37.30;35.81;39.32;;
67322;Laerm;57666;51.436;5.978;2023-10-31T00:54:27;41.49;36.28;52.43;;
67322;Laerm;57666;51.436;5.978;2023-10-31T00:54:37;42.71;36.15;57.82;;
67322;Laerm;57666;51.436;5.978;2023-10-31T00:54:48;41.52;36.39;56.40;;
67322;Laerm;57666;51.436;5.978;2023-10-31T00:54:58;43.26;36.54;53.58;;
67322;Laerm;57666;51.436;5.978;2023-10-31T00:55:09;38.57;36.26;47.81;;
67322;Laerm;57666;51.436;5.978;2023-10-31T00:55:19;38.37;36.52;47.78;;
67322;Laerm;57666;51.436;5.978;2023-10-31T00:55:29;37.77;36.40;42.35;;
67322;Laerm;57666;51.436;5.978;2023-10-31T00:55:40;37.95;36.62;41.89;;
67322;Laerm;57666;51.436;5.978;2023-10-31T00:55:50;44.13;37.91;54.00;;
67322;Laerm;57666;51.436;5.978;2023-10-31T00:56:01;44.16;41.44;46.51;;
67322;Laerm;57666;51.436;5.978;2023-10-31T00:56:12;42.78;37.44;45.64;;
67322;Laerm;57666;51.436;5.978;2023-10-31T00:56:22;41.69;36.31;54.29;;
67322;Laerm;57666;51.436;5.978;2023-10-31T00:56:32;55.93;36.17;69.22;;
67322;Laerm;57666;51.436;5.978;2023-10-31T00:56:43;49.88;35.95;64.78;;
67322;Laerm;57666;51.436;5.978;2023-10-31T00:56:53;46.88;36.16;60.67;;
67322;Laerm;57666;51.436;5.978;2023-10-31T00:57:09;45.45;36.64;67.63;;
67322;Laerm;57666;51.436;5.978;2023-10-31T00:57:19;39.96;36.54;51.75;;
67322;Laerm;57666;51.436;5.978;2023-10-31T00:57:30;38.87;36.12;46.16;;
67322;Laerm;57666;51.436;5.978;2023-10-31T00:57:40;37.80;36.24;42.61;;
67322;Laerm;57666;51.436;5.978;2023-10-31T00:57:51;39.64;36.48;54.66;;
67322;Laerm;57666;51.436;5.978;2023-10-31T00:58:01;37.67;36.41;42.38;;
67322;Laerm;57666;51.436;5.978;2023-10-31T00:58:12;37.68;36.27;39.46;;
67322;Laerm;57666;51.436;5.978;2023-10-31T00:58:22;38.18;36.16;46.63;;
67322;Laerm;57666;51.436;5.978;2023-10-31T00:58:33;43.69;36.81;63.26;;
67322;Laerm;57666;51.436;5.978;2023-10-31T00:58:43;43.03;36.27;57.20;;
67322;Laerm;57666;51.436;5.978;2023-10-31T00:58:53;43.48;36.45;60.03;;
67322;Laerm;57666;51.436;5.978;2023-10-31T00:59:04;49.25;36.74;66.63;;
67322;Laerm;57666;51.436;5.978;2023-10-31T00:59:17;48.65;36.84;63.54;;
67322;Laerm;57666;51.436;5.978;2023-10-31T00:59:28;46.54;43.62;50.86;;
67322;Laerm;57666;51.436;5.978;2023-10-31T00:59:38;48.29;39.47;59.47;;
67322;Laerm;57666;51.436;5.978;2023-10-31T00:59:49;43.15;36.54;59.39;;
67322;Laerm;57666;51.436;5.978;2023-10-31T00:59:59;41.71;36.44;59.15;;
67322;Laerm;57666;51.436;5.978;2023-10-31T01:00:10;37.50;36.30;38.58;;
67322;Laerm;57666;51.436;5.978;2023-10-31T01:00:20;38.29;36.45;46.47;;
67322;Laerm;57666;51.436;5.978;2023-10-31T01:00:31;39.12;36.30;50.84;;
67322;Laerm;57666;51.436;5.978;2023-10-31T01:00:41;39.08;36.59;48.62;;
67322;Laerm;57666;51.436;5.978;2023-10-31T01:00:52;38.08;36.59;42.32;;
67322;Laerm;57666;51.436;5.978;2023-10-31T01:01:02;38.42;36.54;44.28;;
67322;Laerm;57666;51.436;5.978;2023-10-31T01:01:13;38.30;36.64;46.02;;
67322;Laerm;57666;51.436;5.978;2023-10-31T01:01:24;38.96;36.68;50.75;;
67322;Laerm;57666;51.436;5.978;2023-10-31T01:01:34;38.07;36.41;44.42;;
67322;Laerm;57666;51.436;5.978;2023-10-31T01:01:45;49.76;36.76;64.84;;
67322;Laerm;57666;51.436;5.978;2023-10-31T01:01:55;55.04;37.65;70.80;;
67322;Laerm;57666;51.436;5.978;2023-10-31T01:02:08;43.85;36.80;57.15;;
67322;Laerm;57666;51.436;5.978;2023-10-31T01:02:19;47.81;36.77;62.83;;
67322;Laerm;57666;51.436;5.978;2023-10-31T01:02:30;48.44;36.73;65.85;;
67322;Laerm;57666;51.436;5.978;2023-10-31T01:02:40;43.36;36.57;57.16;;
67322;Laerm;57666;51.436;5.978;2023-10-31T01:02:51;44.88;36.87;58.74;;
67322;Laerm;57666;51.436;5.978;2023-10-31T01:03:01;42.49;36.61;55.57;;
67322;Laerm;57666;51.436;5.978;2023-10-31T01:03:12;53.13;36.66;67.53;;
67322;Laerm;57666;51.436;5.978;2023-10-31T01:03:22;52.57;37.54;68.49;;
67322;Laerm;57666;51.436;5.978;2023-10-31T01:03:33;40.32;36.89;53.89;;
67322;Laerm;57666;51.436;5.978;2023-10-31T01:03:43;63.66;37.46;74.30;;
67322;Laerm;57666;51.436;5.978;2023-10-31T01:03:54;55.64;37.56;71.66;;
67322;Laerm;57666;51.436;5.978;2023-10-31T01:04:04;40.25;36.91;56.62;;
67322;Laerm;57666;51.436;5.978;2023-10-31T01:04:15;44.62;36.82;57.27;;
67322;Laerm;57666;51.436;5.978;2023-10-31T01:04:25;57.48;36.87;70.58;;
67322;Laerm;57666;51.436;5.978;2023-10-31T01:04:36;47.07;36.69;61.85;;
67322;Laerm;57666;51.436;5.978;2023-10-31T01:04:47;41.83;36.86;53.37;;
67322;Laerm;57666;51.436;5.978;2023-10-31T01:04:57;39.93;36.83;53.64;;
67322;Laerm;57666;51.436;5.978;2023-10-31T01:05:08;39.21;36.81;51.99;;
67322;Laerm;57666;51.436;5.978;2023-10-31T01:05:18;40.66;36.46;58.03;;
67322;Laerm;57666;51.436;5.978;2023-10-31T01:05:28;37.98;36.85;41.40;;
67322;Laerm;57666;51.436;5.978;2023-10-31T01:05:39;44.23;36.89;62.02;;
67322;Laerm;57666;51.436;5.978;2023-10-31T01:05:49;42.55;36.06;58.72;;
67322;Laerm;57666;51.436;5.978;2023-10-31T01:06:01;47.63;36.81;63.21;;
67322;Laerm;57666;51.436;5.978;2023-10-31T01:06:12;38.68;36.79;48.41;;
67322;Laerm;57666;51.436;5.978;2023-10-31T01:06:22;39.41;36.99;50.64;;
67322;Laerm;57666;51.436;5.978;2023-10-31T01:06:32;41.73;36.67;52.67;;
67322;Laerm;57666;51.436;5.978;2023-10-31T01:06:43;42.37;37.36;55.97;;
67322;Laerm;57666;51.436;5.978;2023-10-31T01:06:54;43.98;36.68;62.06;;
67322;Laerm;57666;51.436;5.978;2023-10-31T01:07:04;39.29;37.00;45.25;;
67322;Laerm;57666;51.436;5.978;2023-10-31T01:07:14;38.28;36.76;39.75;;
67322;Laerm;57666;51.436;5.978;2023-10-31T01:07:27;38.32;36.51;44.21;;
67322;Laerm;57666;51.436;5.978;2023-10-31T01:07:37;38.46;36.73;43.76;;
67322;Laerm;57666;51.436;5.978;2023-10-31T01:07:47;38.38;36.57;43.25;;
67322;Laerm;57666;51.436;5.978;2023-10-31T01:07:58;38.23;36.82;42.29;;
67322;Laerm;57666;51.436;5.978;2023-10-31T01:08:08;41.32;36.62;52.01;;
67322;Laerm;57666;51.436;5.978;2023-10-31T01:08:19;42.64;36.60;56.26;;
67322;Laerm;57666;51.436;5.978;2023-10-31T01:08:29;38.01;36.70;39.82;;
67322;Laerm;57666;51.436;5.978;2023-10-31T01:08:40;38.82;36.76;48.25;;
67322;Laerm;57666;51.436;5.978;2023-10-31T01:08:50;38.04;36.39;43.37;;
67322;Laerm;57666;51.436;5.978;2023-10-31T01:09:01;38.08;36.48;41.32;;
67322;Laerm;57666;51.436;5.978;2023-10-31T01:09:11;37.94;36.63;43.35;;
67322;Laerm;57666;51.436;5.978;2023-10-31T01:09:23;38.30;36.59;44.92;;
67322;Laerm;57666;51.436;5.978;2023-10-31T01:09:33;39.86;36.84;50.39;;
67322;Laerm;57666;51.436;5.978;2023-10-31T01:09:44;40.41;36.78;50.78;;
67322;Laerm;57666;51.436;5.978;2023-10-31T01:09:54;39.34;36.62;50.27;;
67322;Laerm;57666;51.436;5.978;2023-10-31T01:10:05;39.45;36.81;50.10;;
67322;Laerm;57666;51.436;5.978;2023-10-31T01:10:15;43.43;36.65;59.02;;
67322;Laerm;57666;51.436;5.978;2023-10-31T01:10:26;39.59;36.35;49.62;;
67322;Laerm;57666;51.436;5.978;2023-10-31T01:10:39;38.19;36.56;46.29;;
67322;Laerm;57666;51.436;5.978;2023-10-31T01:10:49;38.11;36.66;41.33;;
67322;Laerm;57666;51.436;5.978;2023-10-31T01:11:03;45.11;36.75;61.00;;
67322;Laerm;57666;51.436;5.978;2023-10-31T01:11:13;37.99;36.46;41.01;;
67322;Laerm;57666;51.436;5.978;2023-10-31T01:11:23;43.48;36.86;58.52;;
67322;Laerm;57666;51.436;5.978;2023-10-31T01:11:34;38.65;36.71;47.50;;
67322;Laerm;57666;51.436;5.978;2023-10-31T01:11:44;38.01;36.96;39.21;;
67322;Laerm;57666;51.436;5.978;2023-10-31T01:11:55;37.76;36.45;38.96;;
67322;Laerm;57666;51.436;5.978;2023-10-31T01:12:05;40.34;36.52;50.71;;
67322;Laerm;57666;51.436;5.978;2023-10-31T01:12:16;45.03;36.81;59.13;;
67322;Laerm;57666;51.436;5.978;2023-10-31T01:12:26;38.19;36.59;40.19;;
67322;Laerm;57666;51.436;5.978;2023-10-31T01:12:38;38.01;36.78;39.41;;
67322;Laerm;57666;51.436;5.978;2023-10-31T01:12:50;38.42;36.74;43.29;;
67322;Laerm;57666;51.436;5.978;2023-10-31T01:13:01;38.13;36.49;39.69;;
67322;Laerm;57666;51.436;5.978;2023-10-31T01:13:11;38.11;36.70;40.47;;
67322;Laerm;57666;51.436;5.978;2023-10-31T01:13:21;38.14;36.45;41.89;;
67322;Laerm;57666;51.436;5.978;2023-10-31T01:13:32;38.11;36.71;39.72;;
67322;Laerm;57666;51.436;5.978;2023-10-31T01:13:42;38.11;36.69;41.67;;
67322;Laerm;57666;51.436;5.978;2023-10-31T01:13:53;38.79;36.77;49.72;;
67322;Laerm;57666;51.436;5.978;2023-10-31T01:14:03;46.83;36.98;60.47;;
67322;Laerm;57666;51.436;5.978;2023-10-31T01:14:14;42.68;36.97;55.55;;
67322;Laerm;57666;51.436;5.978;2023-10-31T01:14:24;38.26;36.69;39.78;;
67322;Laerm;57666;51.436;5.978;2023-10-31T01:14:34;38.34;36.78;39.73;;
67322;Laerm;57666;51.436;5.978;2023-10-31T01:14:45;38.28;36.77;40.18;;
67322;Laerm;57666;51.436;5.978;2023-10-31T01:14:55;38.14;36.75;40.32;;
67322;Laerm;57666;51.436;5.978;2023-10-31T01:15:06;38.32;37.00;40.39;;
67322;Laerm;57666;51.436;5.978;2023-10-31T01:15:19;38.12;36.68;39.57;;
67322;Laerm;57666;51.436;5.978;2023-10-31T01:15:29;38.16;36.93;41.32;;
67322;Laerm;57666;51.436;5.978;2023-10-31T01:15:40;38.20;36.71;39.60;;
67322;Laerm;57666;51.436;5.978;2023-10-31T01:15:50;38.25;36.65;41.16;;
67322;Laerm;57666;51.436;5.978;2023-10-31T01:16:00;37.88;36.66;39.67;;
67322;Laerm;57666;51.436;5.978;2023-10-31T01:16:14;43.17;36.62;58.62;;
67322;Laerm;57666;51.436;5.978;2023-10-31T01:16:24;40.68;36.69;59.96;;
67322;Laerm;57666;51.436;5.978;2023-10-31T01:16:34;39.01;36.98;49.49;;
67322;Laerm;57666;51.436;5.978;2023-10-31T01:16:45;38.04;36.55;40.66;;
67322;Laerm;57666;51.436;5.978;2023-10-31T01:16:55;38.06;36.71;39.31;;